createdAt,value
2019-05-21T00:02:02.547Z,12.64
2019-05-21T00:04:38.000Z,12.66
2019-05-21T00:07:09.516Z,12.65
2019-05-21T00:09:43.922Z,12.59
2019-05-21T00:12:15.141Z,12.55
2019-05-21T00:14:47.938Z,12.57
2019-05-21T00:17:21.316Z,12.51
2019-05-21T00:19:53.545Z,12.39
2019-05-21T00:22:28.117Z,12.39
2019-05-21T00:25:03.935Z,11.91
2019-05-21T00:27:36.295Z,12.23
2019-05-21T00:30:44.197Z,12.15
2019-05-21T00:33:54.245Z,11.97
2019-05-21T00:37:04.165Z,12.02
2019-05-21T00:40:11.389Z,12.13
2019-05-21T00:42:45.081Z,12.06
2019-05-21T00:45:18.389Z,12.04
2019-05-21T00:47:49.903Z,12.02
2019-05-21T00:50:21.837Z,11.98
2019-05-21T00:52:54.639Z,11.90
2019-05-21T00:55:27.511Z,11.91
2019-05-21T00:58:00.465Z,11.97
2019-05-21T01:00:33.693Z,12.01
2019-05-21T01:03:09.189Z,12.04
2019-05-21T01:05:40.378Z,12.07
2019-05-21T01:08:12.655Z,12.06
2019-05-21T01:10:44.983Z,12.09
2019-05-21T01:13:18.428Z,11.98
2019-05-21T01:15:53.355Z,12.04
2019-05-21T01:18:27.525Z,11.89
2019-05-21T01:21:00.642Z,11.89
2019-05-21T01:23:33.500Z,12.01
2019-05-21T01:26:09.405Z,12.04
2019-05-21T01:28:44.661Z,12.10
2019-05-21T01:31:17.050Z,12.00
2019-05-21T01:33:49.994Z,11.72
2019-05-21T01:36:21.788Z,11.70
2019-05-21T01:38:55.941Z,11.82
2019-05-21T01:41:28.851Z,11.65
2019-05-21T01:44:02.021Z,11.74
2019-05-21T01:46:33.862Z,11.81
2019-05-21T01:49:05.704Z,11.84
2019-05-21T01:51:40.766Z,11.69
2019-05-21T01:54:12.678Z,11.76
2019-05-21T01:56:45.613Z,11.76
2019-05-21T01:59:18.780Z,11.77
2019-05-21T02:01:51.180Z,11.55
2019-05-21T02:04:25.081Z,11.59
2019-05-21T02:06:59.032Z,11.51
2019-05-21T02:09:34.771Z,11.63
2019-05-21T02:12:10.769Z,11.41
2019-05-21T02:14:41.798Z,11.55
2019-05-21T02:17:15.836Z,11.55
2019-05-21T02:19:50.250Z,11.60
2019-05-21T02:22:21.840Z,11.57
2019-05-21T02:24:54.719Z,11.50
2019-05-21T02:27:27.799Z,11.50
2019-05-21T02:30:02.379Z,11.55
2019-05-21T02:32:35.986Z,11.61
2019-05-21T02:35:09.078Z,11.46
2019-05-21T02:37:43.700Z,11.48
2019-05-21T02:40:15.239Z,11.49
2019-05-21T02:42:47.996Z,11.54
2019-05-21T02:45:19.828Z,11.57
2019-05-21T02:47:51.066Z,11.37
2019-05-21T02:50:24.276Z,11.36
2019-05-21T02:52:57.029Z,11.39
2019-05-21T02:55:30.116Z,11.39
2019-05-21T02:58:03.871Z,11.26
2019-05-21T03:01:04.573Z,11.20
2019-05-21T03:03:41.755Z,11.11
2019-05-21T03:06:15.232Z,11.08
2019-05-21T03:08:50.472Z,11.15
2019-05-21T03:11:22.236Z,11.04
2019-05-21T03:13:54.198Z,11.11
2019-05-21T03:16:28.406Z,11.17
2019-05-21T03:19:00.084Z,11.18
2019-05-21T03:21:33.107Z,11.15
2019-05-21T03:24:06.108Z,10.96
2019-05-21T03:26:40.080Z,11.00
2019-05-21T03:29:12.173Z,10.97
2019-05-21T03:31:45.168Z,10.96
2019-05-21T03:34:18.133Z,11.04
2019-05-21T03:36:50.234Z,11.01
2019-05-21T03:39:25.109Z,10.97
2019-05-21T03:41:59.103Z,10.92
2019-05-21T03:44:30.490Z,10.92
2019-05-21T03:47:04.290Z,10.92
2019-05-21T03:49:35.525Z,10.82
2019-05-21T03:52:07.169Z,10.78
2019-05-21T03:54:39.217Z,10.82
2019-05-21T03:57:12.322Z,10.82
2019-05-21T03:59:44.711Z,10.81
2019-05-21T04:02:19.957Z,10.73
2019-05-21T04:04:52.991Z,10.78
2019-05-21T04:07:24.284Z,10.84
2019-05-21T04:09:57.793Z,10.93
2019-05-21T04:12:30.731Z,10.92
2019-05-21T04:15:07.967Z,11.05
2019-05-21T04:17:49.867Z,11.07
2019-05-21T04:20:22.986Z,11.17
2019-05-21T04:22:56.151Z,11.20
2019-05-21T04:25:27.725Z,11.26
2019-05-21T04:28:01.134Z,11.40
2019-05-21T04:30:33.691Z,11.44
2019-05-21T04:33:08.010Z,11.41
2019-05-21T04:35:40.407Z,11.45
2019-05-21T04:38:12.561Z,11.61
2019-05-21T04:40:45.648Z,11.44
2019-05-21T04:43:18.569Z,11.57
2019-05-21T04:45:50.493Z,11.59
2019-05-21T04:48:26.131Z,11.65
2019-05-21T04:50:59.581Z,11.69
2019-05-21T04:53:31.474Z,11.80
2019-05-21T04:56:03.602Z,11.87
2019-05-21T04:58:36.576Z,11.85
2019-05-21T05:01:10.709Z,11.79
2019-05-21T05:03:43.363Z,11.85
2019-05-21T05:06:17.473Z,11.91
2019-05-21T05:08:48.675Z,11.99
2019-05-21T05:11:21.586Z,12.00
2019-05-21T05:13:54.631Z,12.06
2019-05-21T05:16:27.758Z,11.88
2019-05-21T05:18:59.689Z,11.83
2019-05-21T05:21:34.006Z,11.81
2019-05-21T05:24:06.863Z,11.92
2019-05-21T05:26:39.814Z,11.87
2019-05-21T05:29:14.354Z,11.89
2019-05-21T05:31:45.575Z,12.03
2019-05-21T05:34:18.848Z,12.08
2019-05-21T05:36:54.457Z,12.02
2019-05-21T05:39:27.929Z,12.13
2019-05-21T05:42:03.445Z,12.10
2019-05-21T05:44:35.843Z,11.97
2019-05-21T05:47:09.257Z,12.17
2019-05-21T05:49:46.723Z,12.08
2019-05-21T05:52:18.930Z,12.23
2019-05-21T05:54:50.939Z,12.33
2019-05-21T05:57:24.840Z,12.29
2019-05-21T05:59:57.190Z,12.15
2019-05-21T06:02:32.935Z,12.20
2019-05-21T06:05:07.110Z,12.27
2019-05-21T06:07:42.090Z,12.13
2019-05-21T06:10:17.862Z,12.18
2019-05-21T06:12:51.834Z,12.24
2019-05-21T06:15:26.314Z,12.25
2019-05-21T06:18:00.442Z,11.93
2019-05-21T06:20:34.123Z,12.02
2019-05-21T06:23:06.906Z,12.10
2019-05-21T06:25:39.870Z,12.10
2019-05-21T06:28:12.929Z,11.97
2019-05-21T06:31:07.938Z,12.10
2019-05-21T06:33:42.855Z,11.82
2019-05-21T06:36:16.099Z,11.78
2019-05-21T06:38:49.146Z,11.92
2019-05-21T06:41:23.307Z,12.04
2019-05-21T06:43:54.988Z,12.10
2019-05-21T06:46:28.266Z,12.24
2019-05-21T06:49:00.198Z,12.38
2019-05-21T06:51:32.350Z,12.47
2019-05-21T06:54:05.633Z,12.32
2019-05-21T06:56:37.064Z,12.42
2019-05-21T06:59:09.290Z,12.32
2019-05-21T07:01:42.150Z,12.44
2019-05-21T07:04:16.343Z,12.32
2019-05-21T07:06:49.134Z,12.30
2019-05-21T07:09:22.377Z,12.31
2019-05-21T07:11:57.240Z,12.29
2019-05-21T07:14:29.350Z,12.43
2019-05-21T07:17:03.175Z,12.47
2019-05-21T07:19:34.399Z,12.35
2019-05-21T07:22:12.631Z,12.45
2019-05-21T07:24:39.543Z,12.55
2019-05-21T07:27:13.328Z,12.63
2019-05-21T07:29:46.953Z,12.58
2019-05-21T07:32:18.187Z,12.39
2019-05-21T07:34:50.501Z,12.25
2019-05-21T07:37:24.722Z,12.28
2019-05-21T07:39:56.657Z,12.22
2019-05-21T07:42:30.303Z,12.41
2019-05-21T07:45:03.562Z,12.32
2019-05-21T07:47:37.518Z,12.43
2019-05-21T07:50:09.570Z,12.47
2019-05-21T07:52:43.414Z,12.25
2019-05-21T07:55:15.590Z,12.36
2019-05-21T07:57:48.625Z,12.26
2019-05-21T08:00:20.444Z,12.36
2019-05-21T08:02:53.204Z,12.38
2019-05-21T08:05:27.099Z,12.40
2019-05-21T08:08:00.540Z,12.41
2019-05-21T08:10:33.567Z,12.58
2019-05-21T08:13:07.534Z,12.73
2019-05-21T08:15:39.580Z,12.65
2019-05-21T08:18:14.560Z,12.81
2019-05-21T08:20:48.879Z,12.86
2019-05-21T08:23:21.551Z,12.89
2019-05-21T08:25:54.578Z,12.76
2019-05-21T08:28:27.553Z,12.70
2019-05-21T08:31:02.241Z,12.87
2019-05-21T08:33:33.540Z,12.96
2019-05-21T08:36:09.852Z,13.00
2019-05-21T08:38:44.958Z,12.92
2019-05-21T08:41:20.764Z,12.86
2019-05-21T08:43:52.649Z,12.88
2019-05-21T08:46:24.610Z,12.90
2019-05-21T08:48:58.683Z,13.13
2019-05-21T08:51:30.566Z,12.94
2019-05-21T08:54:03.799Z,13.01
2019-05-21T08:56:37.601Z,13.14
2019-05-21T08:59:09.425Z,13.22
2019-05-21T09:01:42.565Z,13.29
2019-05-21T09:04:15.870Z,13.07
2019-05-21T09:06:48.796Z,13.39
2019-05-21T09:09:21.721Z,13.25
2019-05-21T09:11:54.500Z,13.39
2019-05-21T09:14:27.760Z,13.32
2019-05-21T09:17:01.089Z,13.35
2019-05-21T09:19:36.389Z,13.40
2019-05-21T09:22:09.526Z,13.48
2019-05-21T09:24:43.236Z,13.78
2019-05-21T09:27:15.845Z,13.63
2019-05-21T09:29:48.164Z,13.83
2019-05-21T09:32:23.053Z,13.78
2019-05-21T09:34:56.867Z,13.72
2019-05-21T09:37:30.894Z,13.64
2019-05-21T09:40:04.549Z,13.55
2019-05-21T09:42:37.081Z,13.55
2019-05-21T09:45:10.393Z,13.80
2019-05-21T09:47:43.069Z,13.84
2019-05-21T09:50:16.480Z,13.61
2019-05-21T09:52:49.204Z,13.49
2019-05-21T09:55:21.932Z,13.39
2019-05-21T09:58:14.378Z,13.29
2019-05-21T10:01:07.987Z,13.32
2019-05-21T10:03:44.606Z,13.38
2019-05-21T10:06:16.945Z,13.31
2019-05-21T10:08:50.375Z,13.22
2019-05-21T10:11:22.864Z,13.08
2019-05-21T10:13:55.042Z,13.22
2019-05-21T10:16:28.374Z,13.16
2019-05-21T10:19:00.201Z,13.17
2019-05-21T10:21:35.830Z,13.25
2019-05-21T10:24:09.506Z,13.06
2019-05-21T10:26:43.064Z,13.15
2019-05-21T10:29:16.274Z,13.12
2019-05-21T10:31:49.283Z,13.18
2019-05-21T10:34:22.086Z,13.23
2019-05-21T10:36:55.178Z,13.42
2019-05-21T10:39:28.199Z,13.44
2019-05-21T10:42:00.187Z,13.34
2019-05-21T10:44:33.270Z,13.47
2019-05-21T10:47:06.982Z,13.53
2019-05-21T10:49:39.251Z,13.48
2019-05-21T10:52:13.360Z,13.57
2019-05-21T10:54:45.337Z,13.62
2019-05-21T10:57:19.400Z,13.68
2019-05-21T10:59:55.207Z,13.85
2019-05-21T11:02:42.562Z,13.96
2019-05-21T11:05:28.683Z,13.83
2019-05-21T11:08:22.157Z,13.68
2019-05-21T11:10:34.416Z,13.40
2019-05-21T11:13:09.361Z,13.57
2019-05-21T11:15:40.995Z,13.23
2019-05-21T11:18:13.447Z,13.45
2019-05-21T11:20:47.643Z,13.43
2019-05-21T11:23:19.374Z,13.39
2019-05-21T11:25:52.425Z,13.29
2019-05-21T11:28:25.265Z,13.39
2019-05-21T11:30:57.469Z,13.32
2019-05-21T11:33:31.454Z,13.14
2019-05-21T11:36:03.813Z,13.03
2019-05-21T11:38:40.464Z,12.96
2019-05-21T11:41:13.399Z,13.13
2019-05-21T11:43:49.311Z,13.17
2019-05-21T11:46:22.585Z,13.25
2019-05-21T11:48:54.546Z,13.29
2019-05-21T11:51:28.683Z,13.24
2019-05-21T11:54:04.118Z,12.99
2019-05-21T11:56:37.361Z,13.24
2019-05-21T11:59:09.569Z,13.21
2019-05-21T12:01:43.331Z,13.33
2019-05-21T12:04:16.706Z,13.38
2019-05-21T12:06:53.241Z,13.01
2019-05-21T12:09:25.718Z,13.02
2019-05-21T12:11:58.516Z,13.14
2019-05-21T12:14:29.748Z,12.98
2019-05-21T12:17:03.701Z,12.51
2019-05-21T12:19:39.283Z,12.60
2019-05-21T12:22:12.235Z,12.55
2019-05-21T12:24:44.749Z,12.72
2019-05-21T12:27:18.699Z,12.77
2019-05-21T12:29:50.708Z,12.70
2019-05-21T12:32:26.444Z,12.71
2019-05-21T12:34:57.727Z,12.73
2019-05-21T12:37:32.150Z,12.87
2019-05-21T12:40:05.319Z,12.98
2019-05-21T12:42:37.778Z,12.93
2019-05-21T12:45:09.782Z,12.92
2019-05-21T12:47:42.015Z,12.98
2019-05-21T12:50:16.144Z,12.95
2019-05-21T12:52:47.971Z,12.99
2019-05-21T12:55:19.881Z,12.98
2019-05-21T12:57:52.924Z,13.04
2019-05-21T13:00:30.441Z,13.18
2019-05-21T13:03:01.664Z,13.48
2019-05-21T13:05:33.952Z,13.47
2019-05-21T13:08:05.829Z,13.15
2019-05-21T13:10:38.197Z,13.09
2019-05-21T13:13:10.207Z,13.16
2019-05-21T13:15:42.929Z,13.29
2019-05-21T13:18:18.155Z,13.31
2019-05-21T13:20:53.777Z,13.11
2019-05-21T13:23:27.777Z,13.30
2019-05-21T13:25:59.158Z,12.98
2019-05-21T13:28:32.607Z,13.22
2019-05-21T13:31:05.416Z,13.37
2019-05-21T13:33:41.478Z,13.50
2019-05-21T13:36:14.144Z,13.42
2019-05-21T13:38:46.732Z,13.21
2019-05-21T13:41:19.697Z,12.88
2019-05-21T13:43:53.028Z,12.94
2019-05-21T13:46:26.072Z,12.89
2019-05-21T13:48:58.194Z,12.91
2019-05-21T13:51:31.262Z,12.87
2019-05-21T13:54:05.071Z,12.80
2019-05-21T13:56:38.483Z,12.71
2019-05-21T13:59:11.278Z,12.70
2019-05-21T14:01:43.570Z,12.93
2019-05-21T14:04:16.839Z,13.01
2019-05-21T14:06:50.228Z,12.78
2019-05-21T14:09:22.951Z,12.68
2019-05-21T14:11:57.929Z,12.73
2019-05-21T14:14:30.472Z,12.62
2019-05-21T14:17:04.237Z,12.58
2019-05-21T14:19:36.208Z,12.24
2019-05-21T14:22:08.671Z,12.19
2019-05-21T14:24:42.360Z,12.11
2019-05-21T14:27:15.868Z,12.37
2019-05-21T14:29:48.250Z,12.47
2019-05-21T14:32:22.355Z,12.44
2019-05-21T14:35:01.523Z,12.34
2019-05-21T14:37:34.199Z,12.33
2019-05-21T14:40:09.399Z,12.34
2019-05-21T14:42:58.418Z,12.21
2019-05-21T14:45:19.207Z,12.05
2019-05-21T14:47:54.796Z,12.13
2019-05-21T14:50:28.241Z,12.13
2019-05-21T14:53:02.293Z,12.05
2019-05-21T14:55:35.975Z,12.05
2019-05-21T14:58:07.380Z,11.95
2019-05-21T15:00:38.707Z,12.17
2019-05-21T15:03:24.197Z,12.28
2019-05-21T15:05:44.424Z,12.18
2019-05-21T15:08:16.494Z,12.16
2019-05-21T15:10:49.873Z,12.23
2019-05-21T15:13:23.361Z,12.14
2019-05-21T15:15:55.297Z,12.17
2019-05-21T15:18:34.290Z,12.13
2019-05-21T15:21:21.985Z,12.14
2019-05-21T15:23:57.456Z,11.97
2019-05-21T15:26:34.222Z,11.97
2019-05-21T15:29:11.727Z,11.93
2019-05-21T15:31:46.082Z,12.00
2019-05-21T15:34:19.425Z,11.98
2019-05-21T15:36:52.674Z,11.99
2019-05-21T15:39:25.844Z,12.04
2019-05-21T15:41:59.374Z,12.00
2019-05-21T15:44:31.142Z,12.07
2019-05-21T15:47:06.252Z,11.98
2019-05-21T15:49:37.591Z,12.09
2019-05-21T15:52:10.314Z,12.14
2019-05-21T15:54:41.692Z,12.11
2019-05-21T15:57:14.504Z,11.91
2019-05-21T15:59:46.923Z,11.98
2019-05-21T16:02:19.702Z,12.07
2019-05-21T16:04:52.743Z,12.04
2019-05-21T16:07:25.702Z,11.98
2019-05-21T16:09:58.168Z,11.85
2019-05-21T16:12:31.181Z,11.90
2019-05-21T16:15:05.478Z,11.79
2019-05-21T16:17:37.974Z,11.74
2019-05-21T16:20:10.456Z,11.64
2019-05-21T16:22:43.913Z,11.65
2019-05-21T16:25:16.955Z,11.63
2019-05-21T16:27:49.769Z,11.61
2019-05-21T16:30:22.811Z,11.64
2019-05-21T16:32:55.752Z,11.61
2019-05-21T16:35:30.376Z,11.59
2019-05-21T16:38:03.172Z,11.61
2019-05-21T16:40:34.960Z,11.44
2019-05-21T16:43:08.989Z,11.52
2019-05-21T16:45:44.843Z,11.57
2019-05-21T16:48:16.975Z,11.60
2019-05-21T16:50:49.007Z,11.56
2019-05-21T16:53:22.830Z,11.60
2019-05-21T16:55:55.961Z,11.58
2019-05-21T16:58:27.977Z,11.59
2019-05-21T17:01:00.901Z,11.56
2019-05-21T17:03:36.630Z,11.61
2019-05-21T17:06:10.170Z,11.65
2019-05-21T17:08:43.769Z,11.62
2019-05-21T17:11:15.954Z,11.61
2019-05-21T17:13:48.939Z,11.63
2019-05-21T17:16:22.078Z,11.72
2019-05-21T17:18:54.966Z,11.70
2019-05-21T17:21:27.159Z,11.73
2019-05-21T17:24:02.028Z,11.61
2019-05-21T17:26:34.008Z,11.62
2019-05-21T17:29:07.006Z,11.60
2019-05-21T17:31:40.184Z,11.64
2019-05-21T17:34:13.107Z,11.63
2019-05-21T17:36:48.028Z,11.73
2019-05-21T17:39:22.476Z,11.70
2019-05-21T17:41:56.041Z,11.64
2019-05-21T17:44:28.082Z,11.60
2019-05-21T17:47:01.350Z,11.69
2019-05-21T17:49:33.308Z,11.73
2019-05-21T17:52:07.309Z,11.59
2019-05-21T17:54:55.593Z,11.64
2019-05-21T17:57:14.581Z,11.69
2019-05-21T17:59:48.232Z,11.69
2019-05-21T18:02:24.656Z,11.63
2019-05-21T18:05:02.053Z,11.64
2019-05-21T18:07:34.786Z,11.62
2019-05-21T18:10:07.016Z,11.68
2019-05-21T18:12:41.067Z,11.74
2019-05-21T18:15:14.512Z,11.71
2019-05-21T18:17:50.571Z,11.68
2019-05-21T18:20:23.976Z,11.61
2019-05-21T18:22:55.460Z,11.55
2019-05-21T18:25:29.957Z,11.62
2019-05-21T18:28:01.282Z,11.63
2019-05-21T18:30:35.821Z,11.68
2019-05-21T18:33:07.353Z,11.65
2019-05-21T18:35:41.295Z,11.60
2019-05-21T18:38:14.928Z,11.61
2019-05-21T18:40:46.843Z,11.62
2019-05-21T18:43:19.471Z,11.56
2019-05-21T18:45:53.315Z,11.62
2019-05-21T18:48:25.577Z,11.42
2019-05-21T18:50:58.311Z,11.46
2019-05-21T18:53:31.420Z,11.51
2019-05-21T18:56:07.060Z,11.46
2019-05-21T18:58:40.099Z,11.47
2019-05-21T19:01:14.003Z,11.46
2019-05-21T19:03:46.553Z,11.50
2019-05-21T19:06:19.425Z,11.43
2019-05-21T19:08:53.752Z,11.48
2019-05-21T19:11:25.461Z,11.49
2019-05-21T19:13:58.562Z,11.52
2019-05-21T19:16:31.592Z,11.53
2019-05-21T19:19:04.728Z,11.48
2019-05-21T19:21:37.720Z,11.42
2019-05-21T19:24:09.874Z,11.41
2019-05-21T19:26:44.228Z,11.43
2019-05-21T19:29:16.816Z,11.41
2019-05-21T19:31:49.601Z,11.41
2019-05-21T19:34:22.794Z,11.38
2019-05-21T19:36:57.357Z,11.30
2019-05-21T19:39:29.044Z,11.38
2019-05-21T19:42:03.097Z,11.41
2019-05-21T19:44:34.768Z,11.36
2019-05-21T19:47:09.110Z,11.29
2019-05-21T19:49:43.823Z,11.30
2019-05-21T19:52:17.992Z,11.29
2019-05-21T19:54:52.088Z,11.28
2019-05-21T19:57:28.135Z,11.31
2019-05-21T20:00:02.611Z,11.36
2019-05-21T20:02:35.857Z,11.31
2019-05-21T20:05:13.011Z,11.30
2019-05-21T20:07:45.841Z,11.37
2019-05-21T20:10:22.924Z,11.44
2019-05-21T20:13:01.516Z,11.39
2019-05-21T20:15:37.370Z,11.40
2019-05-21T20:18:12.345Z,11.32
2019-05-21T20:20:44.249Z,11.22
2019-05-21T20:23:18.760Z,11.27
2019-05-21T20:25:56.556Z,11.33
2019-05-21T20:28:29.636Z,11.22
2019-05-21T20:31:02.033Z,11.30
2019-05-21T20:33:35.136Z,11.34
2019-05-21T20:36:09.075Z,11.36
2019-05-21T20:38:43.353Z,11.31
2019-05-21T20:41:20.466Z,11.31
2019-05-21T20:43:59.058Z,11.33
2019-05-21T20:46:29.847Z,11.38
2019-05-21T20:49:02.209Z,11.24
2019-05-21T20:51:36.046Z,11.27
2019-05-21T20:54:10.456Z,11.33
2019-05-21T20:56:42.501Z,11.38
2019-05-21T20:59:13.873Z,11.35
2019-05-21T21:01:47.863Z,11.35
2019-05-21T21:04:20.371Z,11.32
2019-05-21T21:06:52.162Z,11.36
2019-05-21T21:09:25.960Z,11.35
2019-05-21T21:12:00.294Z,11.28
2019-05-21T21:14:33.677Z,11.29
2019-05-21T21:17:07.128Z,11.36
2019-05-21T21:19:39.919Z,11.31
2019-05-21T21:22:12.045Z,11.29
2019-05-21T21:24:43.975Z,11.30
2019-05-21T21:27:17.233Z,11.26
2019-05-21T21:29:51.177Z,11.19
2019-05-21T21:32:23.262Z,11.26
2019-05-21T21:34:58.861Z,11.27
2019-05-21T21:38:00.617Z,11.27
2019-05-21T21:40:32.372Z,11.33
2019-05-21T21:43:08.040Z,11.23
2019-05-21T21:45:42.083Z,11.25
2019-05-21T21:48:16.240Z,11.13
2019-05-21T21:50:49.071Z,11.15
2019-05-21T21:53:20.758Z,11.19
2019-05-21T21:55:54.350Z,11.19
2019-05-21T21:58:28.464Z,11.24
2019-05-21T22:01:28.351Z,11.26
2019-05-21T22:04:04.573Z,11.31
2019-05-21T22:06:41.634Z,11.34
2019-05-21T22:09:19.082Z,11.38
2019-05-21T22:11:55.495Z,11.39
2019-05-21T22:14:29.842Z,11.27
2019-05-21T22:17:02.141Z,11.26
2019-05-21T22:19:33.629Z,11.30
2019-05-21T22:22:07.602Z,11.26
2019-05-21T22:24:41.970Z,11.24
2019-05-21T22:27:13.761Z,11.33
2019-05-21T22:29:45.603Z,11.38
2019-05-21T22:32:19.579Z,11.34
2019-05-21T22:34:51.477Z,11.26
2019-05-21T22:37:27.040Z,11.29
2019-05-21T22:40:01.341Z,11.34
2019-05-21T22:42:35.256Z,11.31
2019-05-21T22:45:10.288Z,11.21
2019-05-21T22:47:43.588Z,11.22
2019-05-21T22:50:17.053Z,11.25
2019-05-21T22:52:49.605Z,11.29
2019-05-21T22:55:22.967Z,11.29
2019-05-21T22:57:57.182Z,11.31
2019-05-21T23:00:28.716Z,11.33
2019-05-21T23:03:04.242Z,11.20
2019-05-21T23:05:37.535Z,11.29
2019-05-21T23:08:10.941Z,11.36
2019-05-21T23:10:43.921Z,11.33
2019-05-21T23:13:16.680Z,11.38
2019-05-21T23:15:50.955Z,11.39
2019-05-21T23:18:22.754Z,11.39
2019-05-21T23:20:59.128Z,11.29
2019-05-21T23:23:33.654Z,11.20
2019-05-21T23:26:10.209Z,11.28
2019-05-21T23:28:46.168Z,11.24
2019-05-21T23:31:21.870Z,11.30
2019-05-21T23:33:58.742Z,11.26
2019-05-21T23:36:32.793Z,11.29
2019-05-21T23:39:09.221Z,11.28
2019-05-21T23:41:42.061Z,11.31
2019-05-21T23:44:14.569Z,11.40
2019-05-21T23:46:48.907Z,11.35
2019-05-21T23:49:24.440Z,11.37
2019-05-21T23:51:56.801Z,11.33
2019-05-21T23:54:29.745Z,11.43
2019-05-21T23:57:03.020Z,11.37
2019-05-21T23:59:37.372Z,11.39
